Time;durP1;ratioP1;P1;durP2;ratioP2;P2;SDS_P1;SDS_P2;PMS_P1;PMS_P2;Temp;Humidity;BMP_temperature;BMP_pressure;BME280_temperature;BME280_humidity;BME280_pressure;Samples;Min_cycle;Max_cycle;Signal;HPM_P1;HPM_P2
2024/01/22 00:00:57;;;;;;;3.97;2.03;;;;;;;15.20;56.75;100618.34;5050839;28;20032;-73
2024/01/22 00:03:23;;;;;;;5.00;2.70;;;;;;;14.50;59.89;100614.34;5051279;28;20032;-74
2024/01/22 00:05:48;;;;;;;11.70;3.50;;;;;;;15.22;56.62;100629.69;5052250;28;20629;-74
2024/01/22 00:08:14;;;;;;;10.60;2.50;;;;;;;14.61;59.15;100611.41;5050095;28;20032;-73
2024/01/22 00:10:39;;;;;;;3.70;2.20;;;;;;;15.00;58.17;100630.38;5051023;28;20361;-75
2024/01/22 00:13:05;;;;;;;8.23;2.70;;;;;;;15.35;56.33;100609.94;5052408;28;20063;-74
2024/01/22 00:15:32;;;;;;;8.23;2.63;;;;;;;15.01;58.72;100621.56;5051687;28;20487;-75
2024/01/22 00:17:57;;;;;;;8.50;3.30;;;;;;;15.36;56.70;100603.78;5047689;28;20026;-75
2024/01/22 00:20:23;;;;;;;8.60;2.67;;;;;;;15.34;56.95;100581.88;5049044;28;20043;-75
2024/01/22 00:22:48;;;;;;;6.50;2.73;;;;;;;15.62;55.14;100591.50;5051717;28;20927;-75
2024/01/22 00:25:14;;;;;;;3.53;2.00;;;;;;;15.26;56.31;100599.69;5052214;28;20384;-75
2024/01/22 00:27:39;;;;;;;7.60;3.00;;;;;;;15.39;55.74;100610.72;5050674;28;20017;-75
2024/01/22 00:30:06;;;;;;;4.77;2.33;;;;;;;15.65;55.50;100604.53;5052307;28;20055;-74
2024/01/22 00:32:31;;;;;;;6.47;2.33;;;;;;;15.13;57.87;100594.00;5050765;28;20108;-75
2024/01/22 00:34:57;;;;;;;6.83;2.77;;;;;;;15.04;56.73;100595.16;5051311;28;20121;-75
2024/01/22 00:37:22;;;;;;;4.13;2.20;;;;;;;15.05;58.52;100594.22;5051298;28;20094;-75
2024/01/22 00:39:47;;;;;;;5.20;2.10;;;;;;;14.47;59.62;100569.75;5052080;28;20033;-75
2024/01/22 00:42:13;;;;;;;4.50;2.37;;;;;;;15.04;59.50;100584.63;5051189;28;20431;-76
2024/01/22 00:44:39;;;;;;;8.10;2.20;;;;;;;15.27;58.22;100559.31;5051326;28;20049;-74
2024/01/22 00:47:04;;;;;;;4.57;1.87;;;;;;;15.81;56.24;100572.41;5052497;28;20020;-75
2024/01/22 00:49:30;;;;;;;4.60;1.83;;;;;;;15.05;58.00;100575.81;5050401;28;20049;-74
2024/01/22 00:51:55;;;;;;;3.90;1.77;;;;;;;15.30;56.41;100543.41;5051249;28;20037;-76
2024/01/22 00:54:21;;;;;;;4.80;2.17;;;;;;;15.48;57.31;100572.66;5051061;28;20036;-74
2024/01/22 00:56:46;;;;;;;4.93;2.13;;;;;;;15.98;55.97;100575.31;5051344;28;20024;-76
2024/01/22 00:59:12;;;;;;;6.70;1.83;;;;;;;15.40;57.81;100594.84;5050853;28;20119;-75
2024/01/22 01:01:37;;;;;;;7.37;2.30;;;;;;;16.16;56.30;100583.47;5051737;28;20047;-76
2024/01/22 01:04:03;;;;;;;4.90;2.03;;;;;;;16.10;57.20;100568.69;5050457;28;20029;-76
2024/01/22 01:06:31;;;;;;;4.07;2.33;;;;;;;15.16;61.73;100571.97;5051074;28;20013;-75
2024/01/22 01:08:56;;;;;;;4.63;1.90;;;;;;;15.04;60.94;100560.94;5050720;28;20037;-75
2024/01/22 01:11:21;;;;;;;6.27;1.57;;;;;;;15.35;60.16;100552.00;5050748;28;20153;-77
2024/01/22 01:13:47;;;;;;;2.40;1.47;;;;;;;14.96;62.09;100555.06;5047237;28;20027;-75
2024/01/22 01:16:12;;;;;;;2.53;1.90;;;;;;;15.19;61.29;100553.44;5041758;28;20013;-76
2024/01/22 01:18:37;;;;;;;3.13;1.23;;;;;;;14.90;62.06;100545.59;5050289;28;20025;-76
2024/01/22 01:21:03;;;;;;;3.17;1.80;;;;;;;14.70;64.22;100542.72;5050375;28;20103;-76
2024/01/22 01:23:29;;;;;;;3.67;1.47;;;;;;;15.07;63.20;100536.28;5051354;28;20495;-75
2024/01/22 01:25:55;;;;;;;3.87;1.80;;;;;;;15.03;61.88;100530.28;5048568;28;20061;-76
2024/01/22 01:28:20;;;;;;;3.63;1.93;;;;;;;15.39;60.89;100506.22;5050678;28;20055;-76
2024/01/22 01:30:45;;;;;;;5.43;1.90;;;;;;;15.54;59.63;100501.34;5049420;28;20562;-76
2024/01/22 01:33:11;;;;;;;2.77;1.70;;;;;;;15.28;60.50;100482.03;5050479;28;20357;-76
2024/01/22 01:35:36;;;;;;;1.83;1.40;;;;;;;15.42;59.88;100474.50;5053967;28;20025;-75
2024/01/22 01:38:02;;;;;;;2.73;1.30;;;;;;;15.81;58.90;100483.66;5053781;28;20021;-76
2024/01/22 01:40:27;;;;;;;4.07;1.73;;;;;;;15.55;59.23;100468.78;5054268;28;20532;-76
2024/01/22 01:42:54;;;;;;;6.50;1.60;;;;;;;15.69;59.79;100482.31;5050583;28;20025;-76
2024/01/22 01:45:20;;;;;;;2.23;1.83;;;;;;;15.91;58.04;100471.03;5053003;28;20376;-76
2024/01/22 01:47:50;;;;;;;4.53;1.70;;;;;;;15.51;62.29;100472.44;5053920;28;20104;-76
2024/01/22 01:50:17;;;;;;;4.10;1.50;;;;;;;16.08;58.92;100468.56;5054247;28;20029;-76
2024/01/22 01:52:46;;;;;;;2.47;1.50;;;;;;;15.90;58.96;100440.31;5052541;28;20025;-75
2024/01/22 01:55:12;;;;;;;2.83;0.80;;;;;;;15.48;61.41;100430.44;5054889;28;20125;-75
2024/01/22 01:57:39;;;;;;;1.10;0.97;;;;;;;15.96;59.42;100428.66;5054812;28;20029;-75
2024/01/22 02:00:09;;;;;;;1.30;1.13;;;;;;;16.06;60.24;100417.72;5054805;28;20052;-76
2024/01/22 02:02:38;;;;;;;1.63;1.27;;;;;;;16.08;59.92;100415.00;5053419;28;20021;-74
2024/01/22 02:05:04;;;;;;;1.07;1.07;;;;;;;15.94;59.64;100402.38;5053768;28;20021;-75
2024/01/22 02:07:30;;;;;;;3.43;0.73;;;;;;;15.97;61.23;100415.44;5053039;28;20024;-76
2024/01/22 02:09:55;;;;;;;3.10;1.30;;;;;;;15.03;65.54;100382.88;5054789;28;20028;-74
2024/01/22 02:12:21;;;;;;;6.27;1.13;;;;;;;15.02;66.41;100389.06;5054760;28;20645;-75
2024/01/22 02:14:47;;;;;;;2.50;1.27;;;;;;;15.77;63.84;100390.69;5052277;28;20432;-75
2024/01/22 02:17:13;;;;;;;3.83;1.27;;;;;;;15.56;65.63;100380.97;5054589;28;20025;-74
2024/01/22 02:19:38;;;;;;;1.93;1.30;;;;;;;15.51;66.84;100372.34;5052447;28;20491;-73
2024/01/22 02:22:05;;;;;;;1.87;1.27;;;;;;;15.87;65.02;100374.56;5053057;28;20029;-73
2024/01/22 02:24:30;;;;;;;6.00;1.50;;;;;;;15.05;68.23;100367.03;5053766;28;20044;-73
2024/01/22 02:26:55;;;;;;;2.67;1.50;;;;;;;15.01;70.17;100347.84;5053395;28;20029;-73
2024/01/22 02:29:21;;;;;;;1.33;1.23;;;;;;;15.78;66.28;100363.41;5054296;28;20114;-74
2024/01/22 02:31:48;;;;;;;1.57;1.10;;;;;;;15.17;67.45;100345.53;5053517;28;20032;-73
2024/01/22 02:34:15;;;;;;;2.93;1.47;;;;;;;15.30;69.03;100345.91;5053620;28;20021;-74
2024/01/22 02:36:40;;;;;;;2.50;1.20;;;;;;;15.83;66.18;100341.34;5052360;28;20028;-74
2024/01/22 02:39:06;;;;;;;1.73;0.93;;;;;;;16.24;63.47;100318.53;5052857;28;20029;-75
2024/01/22 02:41:31;;;;;;;1.07;1.00;;;;;;;16.00;64.07;100344.13;5051740;28;20511;-74
2024/01/22 02:43:57;;;;;;;1.27;1.00;;;;;;;15.61;65.79;100328.97;5054120;28;20069;-74
2024/01/22 02:46:24;;;;;;;0.60;0.60;;;;;;;15.30;68.21;100322.22;5051621;28;20416;-74
2024/01/22 02:48:50;;;;;;;0.90;0.90;;;;;;;16.23;63.98;100314.19;5052871;28;20044;-74
2024/01/22 02:51:15;;;;;;;1.43;0.90;;;;;;;16.49;60.92;100320.16;5053915;28;20374;-74
2024/01/22 02:53:41;;;;;;;1.10;1.00;;;;;;;16.53;60.14;100318.25;5053868;28;20067;-74
2024/01/22 02:56:06;;;;;;;0.90;0.70;;;;;;;16.83;60.05;100308.13;5052169;28;20510;-75
2024/01/22 02:58:32;;;;;;;2.03;1.00;;;;;;;16.71;60.59;100298.97;5053363;28;20025;-75
2024/01/22 03:00:57;;;;;;;1.30;1.00;;;;;;;16.41;61.21;100302.00;5052764;28;20370;-74
2024/01/22 03:03:23;;;;;;;1.70;0.77;;;;;;;16.08;63.19;100299.84;5048350;28;20097;-74
2024/01/22 03:05:48;;;;;;;1.27;0.80;;;;;;;16.28;63.11;100295.56;5040424;28;20911;-75
2024/01/22 03:08:13;;;;;;;1.40;0.70;;;;;;;15.93;65.36;100284.69;5054014;28;20028;-75
2024/01/22 03:10:39;;;;;;;0.80;0.77;;;;;;;16.51;63.60;100306.88;5068237;28;20107;-75
2024/01/22 03:13:04;;;;;;;0.70;0.70;;;;;;;15.89;66.08;100286.56;5053804;28;20056;-75
2024/01/22 03:15:30;;;;;;;3.03;0.87;;;;;;;15.96;67.02;100289.81;5053784;28;20021;-75
2024/01/22 03:17:55;;;;;;;1.17;0.73;;;;;;;16.28;65.61;100285.00;5052336;28;20429;-75
2024/01/22 03:20:21;;;;;;;0.90;0.90;;;;;;;16.33;65.78;100272.47;5052770;28;20029;-75
2024/01/22 03:22:46;;;;;;;0.60;0.60;;;;;;;16.58;62.31;100274.91;5053732;28;20025;-75
2024/01/22 03:25:15;;;;;;;3.30;0.67;;;;;;;16.65;62.91;100288.69;5053479;28;20017;-75
2024/01/22 03:27:40;;;;;;;0.70;0.70;;;;;;;16.06;67.87;100264.81;5051764;28;20135;-76
2024/01/22 03:30:07;;;;;;;1.00;0.77;;;;;;;16.65;64.08;100274.63;5053318;28;20129;-75
2024/01/22 03:32:32;;;;;;;2.33;0.90;;;;;;;16.68;63.60;100269.19;5048079;28;20025;-76
2024/01/22 03:34:57;;;;;;;2.33;0.80;;;;;;;16.02;66.98;100279.03;5032300;28;20028;-75
2024/01/22 03:37:23;;;;;;;0.83;0.83;;;;;;;16.64;64.64;100257.94;5042662;28;20078;-77
2024/01/22 03:39:48;;;;;;;1.07;0.60;;;;;;;15.36;68.82;100265.84;5051741;28;20089;-75
2024/01/22 03:42:13;;;;;;;1.27;0.77;;;;;;;15.76;68.50;100283.56;5052260;28;20024;-75
2024/01/22 03:44:39;;;;;;;0.80;0.70;;;;;;;14.98;72.60;100284.81;5051774;28;20021;-75
2024/01/22 03:47:04;;;;;;;1.00;0.90;;;;;;;15.86;67.30;100267.41;5048404;28;20037;-74
2024/01/22 03:49:30;;;;;;;1.67;0.97;;;;;;;15.95;66.73;100256.50;5032730;28;20053;-76
2024/01/22 03:51:55;;;;;;;1.60;1.23;;;;;;;17.01;62.98;100264.25;5031842;28;20500;-75
2024/01/22 03:54:20;;;;;;;2.00;0.70;;;;;;;16.44;64.92;100259.69;5032687;28;20026;-75
2024/01/22 03:56:46;;;;;;;1.97;0.77;;;;;;;16.23;64.86;100272.00;5042000;28;20031;-75
2024/01/22 03:59:11;;;;;;;2.03;0.97;;;;;;;16.59;65.45;100246.72;5051283;28;20548;-75
2024/01/22 04:01:37;;;;;;;0.83;0.83;;;;;;;16.06;67.46;100264.81;5052414;28;20032;-75
2024/01/22 04:04:03;;;;;;;0.50;0.50;;;;;;;15.57;68.39;100245.72;5051804;28;20039;-76
2024/01/22 04:06:29;;;;;;;1.13;0.77;;;;;;;15.98;67.73;100248.47;5047770;28;20029;-75
2024/01/22 04:08:54;;;;;;;2.67;0.70;;;;;;;16.73;65.91;100260.19;5050620;28;20502;-76
2024/01/22 04:11:20;;;;;;;1.90;0.50;;;;;;;15.99;69.24;100231.72;5052415;28;20024;-75
2024/01/22 04:13:45;;;;;;;1.27;0.73;;;;;;;17.24;63.54;100233.25;5050785;28;20029;-75
2024/01/22 04:16:13;;;;;;;1.53;1.17;;;;;;;17.22;62.32;100225.41;5068342;28;20108;-75
2024/01/22 04:18:42;;;;;;;0.50;0.50;;;;;;;16.34;66.34;100255.72;5052009;28;20044;-74
2024/01/22 04:21:08;;;;;;;1.17;1.03;;;;;;;16.33;68.85;100222.34;5052366;28;20031;-74
2024/01/22 04:23:34;;;;;;;1.97;0.50;;;;;;;16.66;66.01;100248.16;5052341;28;20060;-75
2024/01/22 04:26:01;;;;;;;1.23;0.70;;;;;;;16.52;67.35;100221.56;5052349;28;20476;-76
2024/01/22 04:28:26;;;;;;;0.83;0.67;;;;;;;16.35;68.23;100212.59;5051402;28;20469;-75
2024/01/22 04:30:52;;;;;;;0.50;0.50;;;;;;;15.72;69.66;100199.44;5050972;28;20106;-76
2024/01/22 04:33:17;;;;;;;1.63;1.20;;;;;;;15.71;73.20;100222.28;5051893;28;20024;-74
2024/01/22 04:35:42;;;;;;;0.60;0.60;;;;;;;15.87;74.27;100237.50;5049639;28;20083;-76
2024/01/22 04:38:08;;;;;;;0.90;0.90;;;;;;;16.17;72.40;100245.91;5048049;28;20504;-75
2024/01/22 04:40:34;;;;;;;1.07;0.57;;;;;;;16.79;68.30;100243.22;5050322;28;20048;-75
2024/01/22 04:42:59;;;;;;;0.63;0.60;;;;;;;15.95;71.80;100248.59;5052193;28;20021;-75
2024/01/22 04:45:24;;;;;;;0.50;0.50;;;;;;;16.01;72.32;100271.19;5051123;28;20556;-76
2024/01/22 04:47:50;;;;;;;1.07;0.70;;;;;;;16.57;69.64;100269.72;5051105;28;20414;-75
2024/01/22 04:50:15;;;;;;;0.93;0.53;;;;;;;15.91;72.11;100276.00;5051142;28;20031;-75
2024/01/22 04:52:40;;;;;;;0.40;0.40;;;;;;;16.05;72.99;100268.38;5050104;28;20033;-75
2024/01/22 04:55:06;;;;;;;0.60;0.60;;;;;;;16.19;72.44;100277.47;5050060;28;20048;-74
2024/01/22 04:57:32;;;;;;;1.20;0.60;;;;;;;16.58;70.19;100271.41;5049524;28;20028;-74
2024/01/22 04:59:57;;;;;;;1.70;0.80;;;;;;;16.14;71.05;100271.53;5051833;28;20104;-75
2024/01/22 05:02:27;;;;;;;1.77;1.10;;;;;;;16.77;69.27;100274.09;5049613;28;20063;-76
2024/01/22 05:04:56;;;;;;;2.73;1.03;;;;;;;16.30;70.84;100250.66;5050842;28;20025;-76
2024/01/22 05:07:23;;;;;;;6.30;1.17;;;;;;;15.68;74.29;100279.53;5050312;28;20017;-75
2024/01/22 05:09:49;;;;;;;1.43;0.80;;;;;;;17.02;67.88;100260.69;5050523;28;20086;-75
2024/01/22 05:12:14;;;;;;;1.97;0.90;;;;;;;16.45;71.70;100258.75;5052003;28;20025;-75
2024/01/22 05:14:40;;;;;;;1.03;0.97;;;;;;;16.58;69.66;100258.19;5051613;28;20032;-75
2024/01/22 05:17:07;;;;;;;0.50;0.50;;;;;;;15.83;75.97;100280.72;5049796;28;20021;-75
2024/01/22 05:19:32;;;;;;;1.43;1.00;;;;;;;16.67;71.09;100280.72;5050299;28;20099;-75
2024/01/22 05:21:58;;;;;;;3.23;1.00;;;;;;;15.96;75.25;100305.63;5050907;28;20045;-74
2024/01/22 05:24:23;;;;;;;0.87;0.87;;;;;;;15.90;75.98;100295.34;5049770;28;20074;-75
2024/01/22 05:26:48;;;;;;;3.80;1.00;;;;;;;16.57;71.82;100291.66;5051424;28;20107;-75
2024/01/22 05:29:14;;;;;;;6.43;1.30;;;;;;;15.88;72.99;100279.63;5050945;28;20376;-74
2024/01/22 05:31:40;;;;;;;2.27;1.10;;;;;;;16.70;70.61;100289.31;5049930;28;20025;-74
2024/01/22 05:34:05;;;;;;;1.27;0.90;;;;;;;17.12;66.84;100285.72;5051846;28;20385;-76
2024/01/22 05:36:30;;;;;;;2.53;1.07;;;;;;;16.55;70.09;100288.22;5051335;28;20025;-75
2024/01/22 05:38:56;;;;;;;2.83;0.90;;;;;;;16.99;68.11;100292.47;5051484;28;20024;-74
2024/01/22 05:41:21;;;;;;;6.03;1.10;;;;;;;17.00;66.75;100294.19;5051582;28;20024;-75
2024/01/22 05:43:46;;;;;;;4.47;1.07;;;;;;;17.62;64.90;100300.09;5051049;28;20110;-75
2024/01/22 05:46:12;;;;;;;6.30;0.93;;;;;;;16.88;67.70;100305.28;5050140;28;20388;-75
2024/01/22 05:48:37;;;;;;;1.73;1.00;;;;;;;17.03;66.15;100299.31;5049831;28;20060;-75
2024/01/22 05:51:03;;;;;;;6.07;1.07;;;;;;;17.11;66.03;100313.03;5050058;28;20028;-75
2024/01/22 05:53:29;;;;;;;2.80;1.10;;;;;;;17.64;62.89;100294.78;5050356;28;20025;-75
2024/01/22 05:55:55;;;;;;;3.97;0.90;;;;;;;18.12;60.95;100295.09;5050628;28;20035;-76
2024/01/22 05:58:20;;;;;;;8.60;1.10;;;;;;;17.52;64.96;100295.38;5049775;28;20029;-75
2024/01/22 06:00:45;;;;;;;3.47;0.87;;;;;;;18.22;60.28;100295.50;5049854;28;20048;-75
2024/01/22 06:03:11;;;;;;;6.33;0.70;;;;;;;18.04;59.80;100284.91;5050416;28;20049;-75
2024/01/22 06:05:36;;;;;;;5.20;0.80;;;;;;;18.54;58.62;100285.06;5049717;28;20079;-76
2024/01/22 06:08:04;;;;;;;7.17;0.90;;;;;;;17.80;59.91;100308.97;5051791;28;20031;-73
2024/01/22 06:10:30;;;;;;;4.57;1.20;;;;;;;17.49;61.97;100306.06;5053920;28;20461;-76
2024/01/22 06:12:55;;;;;;;5.93;0.77;;;;;;;17.94;60.09;100312.72;5050024;28;20040;-76
2024/01/22 06:15:21;;;;;;;9.67;0.93;;;;;;;17.84;59.92;100316.75;5050257;28;20032;-75
2024/01/22 06:17:46;;;;;;;2.30;0.50;;;;;;;17.52;60.44;100305.94;5047480;28;20025;-75
2024/01/22 06:20:11;;;;;;;4.87;1.37;;;;;;;17.87;60.01;100311.28;5052085;28;20024;-76
2024/01/22 06:22:37;;;;;;;4.07;1.20;;;;;;;17.54;60.25;100327.84;5053921;28;20029;-75
2024/01/22 06:25:04;;;;;;;5.93;0.93;;;;;;;18.01;60.72;100318.56;5054759;28;20492;-76
2024/01/22 06:27:29;;;;;;;4.40;0.90;;;;;;;17.88;60.31;100326.22;5053163;28;20025;-75
2024/01/22 06:29:58;;;;;;;1.63;0.50;;;;;;;17.78;60.78;100329.31;5070090;28;20146;-75
2024/01/22 06:32:23;;;;;;;5.90;0.60;;;;;;;17.96;59.25;100332.88;5053232;28;20135;-75
2024/01/22 06:34:49;;;;;;;1.33;0.50;;;;;;;17.44;61.74;100322.97;5052834;28;20142;-76
2024/01/22 06:37:15;;;;;;;13.43;1.57;;;;;;;17.57;62.00;100325.03;5052589;28;20032;-76
2024/01/22 06:39:41;;;;;;;6.30;1.00;;;;;;;17.85;60.20;100324.59;5052452;28;20029;-76
2024/01/22 06:42:07;;;;;;;8.60;1.17;;;;;;;18.48;56.47;100318.00;5052351;28;20103;-76
2024/01/22 06:44:33;;;;;;;7.97;2.00;;;;;;;18.77;54.50;100313.81;5052409;28;20392;-77
2024/01/22 06:47:01;;;;;;;11.27;1.17;;;;;;;18.27;56.57;100319.91;5054074;28;20040;-76
2024/01/22 06:49:26;;;;;;;10.87;1.50;;;;;;;18.17;57.47;100324.81;5052063;28;20481;-76
2024/01/22 06:51:52;;;;;;;13.03;1.50;;;;;;;18.19;57.64;100290.34;5052899;28;20032;-75
2024/01/22 06:54:19;;;;;;;18.90;2.80;;;;;;;18.33;57.07;100318.75;5051689;28;20059;-76
2024/01/22 06:56:45;;;;;;;17.10;3.27;;;;;;;17.89;57.81;100341.16;5052233;28;20024;-75
2024/01/22 06:59:10;;;;;;;10.67;2.23;;;;;;;18.04;56.86;100314.00;5053649;28;20071;-75
2024/01/22 07:01:35;;;;;;;19.93;2.50;;;;;;;17.88;57.18;100339.44;5048751;28;20029;-75
2024/01/22 07:04:01;;;;;;;16.95;2.40;;;;;;;18.21;55.76;100325.53;5053737;28;20108;-76
2024/01/22 07:06:26;;;;;;;30.53;3.87;;;;;;;18.43;55.49;100325.31;5052129;28;20078;-75
2024/01/22 07:08:51;;;;;;;24.67;4.03;;;;;;;18.00;56.18;100351.22;5052885;28;20483;-75
2024/01/22 07:11:17;;;;;;;27.23;3.30;;;;;;;17.69;57.60;100345.59;5051652;28;20028;-75
2024/01/22 07:13:42;;;;;;;18.52;2.08;;;;;;;18.04;57.17;100345.75;5050570;28;20036;-75
2024/01/22 07:16:08;;;;;;;44.85;4.95;;;;;;;18.04;56.86;100388.03;5050583;28;20119;-73
2024/01/22 07:18:33;;;;;;;20.43;2.97;;;;;;;17.99;57.79;100342.44;5050767;28;20057;-75
2024/01/22 07:20:59;;;;;;;20.17;2.77;;;;;;;17.93;56.58;100345.41;5051392;28;20056;-74
2024/01/22 07:23:26;;;;;;;26.83;3.90;;;;;;;18.26;56.64;100350.81;5049909;28;20223;-74
2024/01/22 07:25:51;;;;;;;23.13;2.60;;;;;;;17.48;58.13;100380.97;5052529;28;20099;-73
2024/01/22 07:28:16;;;;;;;31.30;3.15;;;;;;;18.48;55.45;100323.28;5052412;28;20014;-74
2024/01/22 07:30:42;;;;;;;25.20;2.43;;;;;;;17.98;56.61;100372.47;5046534;28;20033;-74
2024/01/22 07:33:08;;;;;;;30.27;3.03;;;;;;;17.90;55.89;100391.31;5034325;28;20053;-73
2024/01/22 07:35:34;;;;;;;21.17;2.83;;;;;;;18.61;55.17;100350.81;5050799;28;20056;-74
2024/01/22 07:37:59;;;;;;;16.52;3.40;;;;;;;18.22;55.43;100359.00;5043326;28;20116;-74
2024/01/22 07:40:25;;;;;;;31.00;2.87;;;;;;;18.29;54.80;100352.47;5052711;28;20099;-74
2024/01/22 07:42:50;;;;;;;16.63;2.42;;;;;;;18.15;57.14;100371.66;5051391;28;20021;-73
2024/01/22 07:45:16;;;;;;;33.93;3.17;;;;;;;18.03;58.54;100381.03;5051829;28;20495;-73
2024/01/22 07:47:43;;;;;;;19.97;2.77;;;;;;;17.25;62.12;100451.53;5051763;28;20028;-74
2024/01/22 07:50:13;;;;;;;15.23;2.93;;;;;;;17.66;62.14;100397.75;5050279;28;20040;-74
2024/01/22 07:52:39;;;;;;;20.33;2.87;;;;;;;17.98;61.04;100393.63;5063397;28;20112;-73
2024/01/22 07:55:05;;;;;;;21.20;3.03;;;;;;;17.97;62.13;100400.69;5048857;28;20545;-75
2024/01/22 07:57:31;;;;;;;16.57;3.23;;;;;;;18.51;59.18;100430.78;5050884;28;20052;-74
2024/01/22 07:59:56;;;;;;;23.83;3.47;;;;;;;18.66;59.17;100398.25;5052199;28;20477;-72
2024/01/22 08:02:22;;;;;;;23.30;3.33;;;;;;;18.51;60.38;100412.25;5050678;28;20071;-75
2024/01/22 08:04:47;;;;;;;25.23;4.33;;;;;;;18.07;61.44;100419.63;5050138;28;20025;-75
2024/01/22 08:07:13;;;;;;;15.00;2.90;;;;;;;17.44;63.67;100422.53;5050883;28;20039;-75
2024/01/22 08:09:38;;;;;;;26.63;3.83;;;;;;;18.35;60.73;100442.09;5051924;28;20032;-75
2024/01/22 08:12:04;;;;;;;19.77;2.97;;;;;;;18.56;59.80;100441.97;5050967;28;20408;-74
2024/01/22 08:14:31;;;;;;;25.70;3.37;;;;;;;18.46;60.01;100447.75;5067335;28;20021;-74
2024/01/22 08:16:57;;;;;;;26.03;4.40;;;;;;;17.91;61.22;100458.25;5038472;28;20479;-75
2024/01/22 08:19:22;;;;;;;21.27;2.43;;;;;;;16.89;65.42;100460.13;5049430;28;20100;-74
2024/01/22 08:21:48;;;;;;;26.30;3.33;;;;;;;17.24;65.04;100455.97;5049548;28;20436;-75
2024/01/22 08:24:14;;;;;;;31.73;3.47;;;;;;;17.53;63.81;100450.31;5049933;28;20078;-75
2024/01/22 08:26:39;;;;;;;25.97;3.57;;;;;;;17.38;62.81;100443.91;5050038;28;20107;-75
2024/01/22 08:29:05;;;;;;;16.23;2.53;;;;;;;17.41;62.26;100452.56;5051004;28;20435;-75
2024/01/22 08:31:30;;;;;;;24.77;4.00;;;;;;;17.20;62.89;100458.78;5055701;28;20028;-74
2024/01/22 08:33:56;;;;;;;25.70;3.40;;;;;;;17.10;64.74;100466.25;5063611;28;20033;-74
2024/01/22 08:36:22;;;;;;;24.07;3.73;;;;;;;17.51;61.24;100479.44;5050321;28;20025;-75
2024/01/22 08:38:47;;;;;;;26.23;3.37;;;;;;;17.18;62.26;100472.06;5050323;28;20032;-75
2024/01/22 08:41:13;;;;;;;30.47;3.27;;;;;;;17.24;60.86;100476.22;5049524;28;20017;-75
2024/01/22 08:43:38;;;;;;;24.53;3.23;;;;;;;16.85;61.34;100484.91;5049118;28;20595;-74
2024/01/22 08:46:04;;;;;;;31.67;3.00;;;;;;;17.86;57.94;100471.72;5049874;28;20029;-74
2024/01/22 08:48:30;;;;;;;16.93;2.93;;;;;;;17.63;56.85;100468.31;5050033;28;20124;-74
2024/01/22 08:50:56;;;;;;;21.40;3.13;;;;;;;17.48;56.68;100499.88;5050813;28;20473;-75
2024/01/22 08:53:21;;;;;;;20.80;3.53;;;;;;;17.61;56.42;100512.47;5050141;28;20035;-74
2024/01/22 08:55:47;;;;;;;18.97;3.80;;;;;;;16.36;59.75;100498.28;5048262;28;20032;-74
2024/01/22 08:58:12;;;;;;;15.97;2.70;;;;;;;16.35;58.87;100512.38;5050474;28;20441;-73
2024/01/22 09:00:39;;;;;;;16.90;3.23;;;;;;;16.64;58.72;100519.16;5049551;28;20488;-75
2024/01/22 09:03:04;;;;;;;26.90;4.40;;;;;;;17.57;55.40;100515.28;5049885;28;20028;-75
2024/01/22 09:05:30;;;;;;;14.93;2.30;;;;;;;17.17;54.94;100507.31;5046091;28;20079;-75
2024/01/22 09:07:55;;;;;;;24.83;3.43;;;;;;;17.16;56.22;100526.75;5046600;28;20053;-75
2024/01/22 09:10:21;;;;;;;18.33;3.23;;;;;;;17.56;54.28;100526.81;5050252;28;20056;-75
2024/01/22 09:12:48;;;;;;;15.73;1.60;;;;;;;17.04;55.00;100538.66;5050771;28;20021;-75
2024/01/22 09:15:17;;;;;;;33.17;3.90;;;;;;;17.07;55.21;100554.38;5036077;28;20013;-75
2024/01/22 09:17:43;;;;;;;18.33;2.27;;;;;;;17.00;55.88;100547.63;5049491;28;20120;-74
2024/01/22 09:20:10;;;;;;;21.83;4.37;;;;;;;17.27;54.98;100560.63;5050826;28;20473;-74
2024/01/22 09:22:35;;;;;;;16.63;2.13;;;;;;;16.34;56.13;100566.91;5049828;28;20032;-74
2024/01/22 09:25:00;;;;;;;14.20;4.27;;;;;;;15.67;58.57;100579.00;5046250;28;20017;-74
2024/01/22 09:27:26;;;;;;;19.17;2.40;;;;;;;16.28;56.81;100575.94;5043926;28;20488;-75
2024/01/22 09:29:51;;;;;;;17.60;2.00;;;;;;;15.63;58.84;100572.09;5030373;28;20048;-74
2024/01/22 09:32:18;;;;;;;5.93;1.80;;;;;;;16.37;57.60;100579.13;5049507;28;20027;-75
2024/01/22 09:34:44;;;;;;;13.83;1.60;;;;;;;16.95;55.08;100581.28;5048549;28;20031;-74
2024/01/22 09:37:09;;;;;;;5.87;1.90;;;;;;;16.63;55.16;100586.03;5050025;28;20025;-74
2024/01/22 09:39:35;;;;;;;14.20;1.70;;;;;;;17.64;53.50;100580.19;5045792;28;20140;-76
2024/01/22 09:42:00;;;;;;;13.77;2.00;;;;;;;16.94;53.35;100574.31;5050485;28;20033;-74
2024/01/22 09:44:26;;;;;;;20.63;2.13;;;;;;;16.64;54.91;100587.78;5048651;28;20028;-75
2024/01/22 09:46:52;;;;;;;15.13;2.30;;;;;;;16.65;54.17;100585.97;5048470;28;20032;-74
2024/01/22 09:49:18;;;;;;;21.00;2.23;;;;;;;16.69;54.96;100590.22;5048611;28;20045;-75
2024/01/22 09:51:45;;;;;;;13.53;1.57;;;;;;;17.00;54.04;100602.25;5049397;28;20029;-75
2024/01/22 09:54:12;;;;;;;16.77;2.50;;;;;;;16.89;53.02;100602.66;5050947;28;20016;-74
2024/01/22 09:56:38;;;;;;;17.03;1.87;;;;;;;17.22;51.93;100615.41;5052058;28;20078;-75
2024/01/22 09:59:19;;;;;;;11.00;1.53;;;;;;;16.88;53.37;100616.75;5052339;28;20032;-74
2024/01/22 10:01:49;;;;;;;13.00;2.17;;;;;;;17.70;50.83;100616.91;5052668;28;20107;-75
2024/01/22 10:04:15;;;;;;;13.07;1.50;;;;;;;16.20;53.46;100632.53;5052608;28;20017;-75
2024/01/22 10:06:41;;;;;;;11.13;1.33;;;;;;;16.31;53.54;100632.09;5052164;28;21086;-75
2024/01/22 10:09:07;;;;;;;15.50;1.93;;;;;;;16.36;53.86;100636.31;5053292;28;20020;-75
2024/01/22 10:11:32;;;;;;;17.33;2.37;;;;;;;16.71;52.72;100635.91;5051664;28;20087;-75
2024/01/22 10:13:58;;;;;;;15.00;1.67;;;;;;;16.23;53.71;100642.94;5052371;28;20412;-75
2024/01/22 10:16:26;;;;;;;6.07;1.63;;;;;;;16.70;52.75;100642.94;5055375;28;20484;-75
2024/01/22 10:19:06;;;;;;;10.87;2.30;;;;;;;16.92;50.75;100652.69;5072133;28;20020;-74
2024/01/22 10:21:35;;;;;;;15.17;2.03;;;;;;;17.66;50.08;100647.03;5059160;28;20025;-75
2024/01/22 10:24:08;;;;;;;13.50;2.57;;;;;;;17.32;50.99;100658.16;5054040;28;20025;-75
2024/01/22 10:26:34;;;;;;;9.48;1.67;;;;;;;16.02;52.40;100670.94;5053012;28;20079;-75
2024/01/22 10:29:17;;;;;;;7.63;1.70;;;;;;;17.20;49.98;100664.78;5052741;28;20020;-74
2024/01/22 10:31:57;;;;;;;;;;;;;;;17.42;49.67;100676.22;5053472;28;20033;-74
2024/01/22 10:34:53;;;;;;;22.17;2.97;;;;;;;17.19;50.04;100681.56;5043810;28;20284;-74
2024/01/22 10:37:19;;;;;;;8.10;1.60;;;;;;;16.98;50.60;100689.44;5065829;28;20153;-74
2024/01/22 10:39:48;;;;;;;12.07;2.67;;;;;;;17.98;49.53;100702.97;5051267;28;20036;-74
2024/01/22 10:42:16;;;;;;;11.67;1.70;;;;;;;17.60;48.50;100700.16;5052214;28;20109;-74
2024/01/22 10:44:43;;;;;;;13.10;2.53;;;;;;;17.55;48.38;100713.56;5052665;28;20027;-73
2024/01/22 10:47:11;;;;;;;15.13;1.90;;;;;;;17.72;47.88;100710.22;5051648;28;20067;-74
2024/01/22 10:49:36;;;;;;;11.53;1.93;;;;;;;17.03;49.50;100694.50;5052931;28;20045;-75
2024/01/22 10:52:03;;;;;;;20.80;1.97;;;;;;;17.20;48.65;100713.22;5051740;28;20124;-74
2024/01/22 10:54:30;;;;;;;10.83;1.60;;;;;;;17.72;47.08;100710.22;5051964;28;20060;-74
2024/01/22 10:57:20;;;;;;;15.77;2.00;;;;;;;18.13;46.59;100720.84;5052630;28;20028;-75
2024/01/22 10:59:49;;;;;;;17.17;2.40;;;;;;;16.98;48.48;100707.03;5051575;28;20507;-73
2024/01/22 11:02:21;;;;;;;11.87;2.00;;;;;;;19.04;44.58;100721.22;5051061;28;20025;-75
2024/01/22 11:04:51;;;;;;;13.13;1.77;;;;;;;16.82;47.70;100733.13;5052658;28;20782;-75
2024/01/22 11:07:23;;;;;;;8.80;1.83;;;;;;;17.32;47.11;100717.13;5051089;28;20021;-74
2024/01/22 11:09:50;;;;;;;7.90;1.57;;;;;;;17.92;46.09;100748.22;5051866;28;20791;-74
2024/01/22 11:12:19;;;;;;;13.63;1.57;;;;;;;17.97;45.99;100751.53;5050154;28;20075;-75
2024/01/22 11:14:45;;;;;;;16.43;1.87;;;;;;;17.86;45.71;100753.72;5043068;28;20126;-75
2024/01/22 11:17:11;;;;;;;6.22;0.98;;;;;;;17.95;45.75;100756.00;5047087;28;20024;-75